createdAt,value
2022-11-09T00:01:50.351Z,100645.97
2022-11-09T00:03:56.717Z,100644.25
2022-11-09T00:05:59.393Z,100648.84
2022-11-09T00:08:00.860Z,100645.25
2022-11-09T00:10:02.370Z,100649.78
2022-11-09T00:12:04.913Z,100645.63
2022-11-09T00:14:06.520Z,100643.19
2022-11-09T00:16:09.469Z,100636.94
2022-11-09T00:18:10.890Z,100636.06
2022-11-09T00:20:12.638Z,100637.06
2022-11-09T00:22:14.077Z,100647.84
2022-11-09T00:24:16.295Z,100637.16
2022-11-09T00:26:19.047Z,100632.63
2022-11-09T00:28:20.575Z,100630.19
2022-11-09T00:30:21.995Z,100619.78
2022-11-09T00:32:27.607Z,100633.91
2022-11-09T00:34:29.440Z,100636.84
2022-11-09T00:36:30.918Z,100625.63
2022-11-09T00:38:32.336Z,100624.81
2022-11-09T00:40:33.747Z,100621.38
2022-11-09T00:42:35.219Z,100613.69
2022-11-09T00:44:36.678Z,100617.28
2022-11-09T00:46:38.121Z,100611.03
2022-11-09T00:48:40.193Z,100619.22
2022-11-09T00:50:41.653Z,100610.47
2022-11-09T00:52:43.084Z,100613.25
2022-11-09T00:54:44.510Z,100620.41
2022-11-09T00:56:45.924Z,100608.22
2022-11-09T00:58:47.454Z,100613.66
2022-11-09T01:00:49.087Z,100619.22
2022-11-09T01:02:51.065Z,100618.50
2022-11-09T01:04:52.500Z,100611.59
2022-11-09T01:06:53.974Z,100618.75
2022-11-09T01:08:55.878Z,100618.81
2022-11-09T01:10:57.365Z,100618.00
2022-11-09T01:12:59.343Z,100617.03
2022-11-09T01:15:01.028Z,100615.22
2022-11-09T01:17:02.473Z,100613.50
2022-11-09T01:19:04.160Z,100612.50
2022-11-09T01:21:09.700Z,100630.03
2022-11-09T01:23:12.738Z,100635.16
2022-11-09T01:25:15.415Z,100632.34
2022-11-09T01:27:16.869Z,100627.78
2022-11-09T01:29:18.371Z,100625.84
2022-11-09T01:31:21.392Z,100625.72
2022-11-09T01:33:23.005Z,100620.34
2022-11-09T01:35:24.556Z,100621.13
2022-11-09T01:37:26.015Z,100624.50
2022-11-09T01:39:27.442Z,100620.78
2022-11-09T01:41:29.415Z,100619.88
2022-11-09T01:43:30.873Z,100617.22
2022-11-09T01:45:32.353Z,100614.56
2022-11-09T01:47:34.580Z,100611.97
2022-11-09T01:49:45.461Z,100619.28
2022-11-09T01:51:52.903Z,100621.13
2022-11-09T01:54:00.753Z,100617.69
2022-11-09T01:56:06.785Z,100616.09
2022-11-09T01:58:17.727Z,100611.94
2022-11-09T02:00:19.369Z,100611.06
2022-11-09T02:02:21.256Z,100612.00
2022-11-09T02:04:26.984Z,100613.13
2022-11-09T02:06:30.778Z,100608.75
2022-11-09T02:08:32.544Z,100607.13
2022-11-09T02:10:41.091Z,100613.38
2022-11-09T02:12:43.437Z,100614.31
2022-11-09T02:14:45.552Z,100617.88
2022-11-09T02:16:47.487Z,100608.13
2022-11-09T02:18:52.997Z,100611.78
2022-11-09T02:20:57.023Z,100601.09
2022-11-09T02:22:58.464Z,100604.69
2022-11-09T02:25:00.015Z,100601.09
2022-11-09T02:27:01.587Z,100595.94
2022-11-09T02:29:07.157Z,100603.09
2022-11-09T02:31:13.233Z,100600.44
2022-11-09T02:33:14.712Z,100591.63
2022-11-09T02:35:16.178Z,100594.28
2022-11-09T02:37:50.625Z,100594.34
2022-11-09T02:39:52.117Z,100596.00
2022-11-09T02:42:02.949Z,100591.56
2022-11-09T02:44:05.369Z,100590.84
2022-11-09T02:46:06.850Z,100590.03
2022-11-09T02:48:08.379Z,100592.75
2022-11-09T02:50:10.205Z,100588.38
2022-11-09T02:52:11.745Z,100587.41
2022-11-09T02:54:13.405Z,100590.78
2022-11-09T02:56:14.854Z,100594.94
2022-11-09T02:58:16.277Z,100588.72
2022-11-09T03:00:17.842Z,100592.22
2022-11-09T03:02:19.309Z,100591.28
2022-11-09T03:04:20.741Z,100602.03
2022-11-09T03:06:34.279Z,100595.94
2022-11-09T03:08:36.659Z,100590.63
2022-11-09T03:10:38.094Z,100590.63
2022-11-09T03:12:39.643Z,100592.44
2022-11-09T03:14:41.119Z,100592.28
2022-11-09T03:16:46.474Z,100599.38
2022-11-09T03:18:51.306Z,100608.34
2022-11-09T03:20:52.742Z,100594.34
2022-11-09T03:22:58.105Z,100601.38
2022-11-09T03:24:59.577Z,100595.06
2022-11-09T03:27:01.117Z,100595.81
2022-11-09T03:29:02.538Z,100588.66
2022-11-09T03:31:04.089Z,100597.41
2022-11-09T03:33:10.339Z,100593.94
2022-11-09T03:35:11.804Z,100594.81
2022-11-09T03:37:13.326Z,100593.09
2022-11-09T03:39:14.781Z,100596.66
2022-11-09T03:41:16.205Z,100593.09
2022-11-09T03:43:17.962Z,100600.19
2022-11-09T03:45:19.629Z,100605.34
2022-11-09T03:47:21.060Z,100607.03
2022-11-09T03:49:23.830Z,100610.41
2022-11-09T03:51:25.352Z,100605.09
2022-11-09T03:53:26.794Z,100600.72
2022-11-09T03:55:29.061Z,100606.84
2022-11-09T03:57:30.612Z,100610.41
2022-11-09T03:59:32.055Z,100614.13
2022-11-09T04:01:33.511Z,100607.13
2022-11-09T04:03:34.975Z,100606.34
2022-11-09T04:05:36.464Z,100596.75
2022-11-09T04:07:38.646Z,100601.25
2022-11-09T04:09:40.112Z,100600.50
2022-11-09T04:11:41.545Z,100604.16
2022-11-09T04:13:43.221Z,100606.94
2022-11-09T04:15:44.652Z,100607.94
2022-11-09T04:17:57.251Z,100605.50
2022-11-09T04:19:58.913Z,100607.38
2022-11-09T04:22:00.327Z,100602.13
2022-11-09T04:24:01.792Z,100607.44
2022-11-09T04:26:03.258Z,100610.16
2022-11-09T04:28:06.440Z,100612.81
2022-11-09T04:30:08.495Z,100614.47
2022-11-09T04:32:09.943Z,100619.69
2022-11-09T04:34:11.366Z,100616.94
2022-11-09T04:36:12.833Z,100615.91
2022-11-09T04:38:14.833Z,100620.88
2022-11-09T04:40:16.302Z,100621.47
2022-11-09T04:42:17.750Z,100616.94
2022-11-09T04:44:19.158Z,100621.25
2022-11-09T04:46:20.613Z,100628.25
2022-11-09T04:48:22.016Z,100625.41
2022-11-09T04:50:23.449Z,100626.19
2022-11-09T04:52:24.864Z,100621.75
2022-11-09T04:54:26.324Z,100629.78
2022-11-09T04:56:27.993Z,100625.41
2022-11-09T04:58:29.653Z,100623.69
2022-11-09T05:00:31.698Z,100625.53
2022-11-09T05:02:33.130Z,100622.88
2022-11-09T05:04:34.547Z,100621.16
2022-11-09T05:06:36.109Z,100622.09
2022-11-09T05:08:37.559Z,100618.50
2022-11-09T05:10:39.043Z,100619.38
2022-11-09T05:12:45.654Z,100615.03
2022-11-09T05:14:47.518Z,100605.34
2022-11-09T05:16:49.036Z,100615.22
2022-11-09T05:18:50.939Z,100610.00
2022-11-09T05:20:52.367Z,100611.84
2022-11-09T05:23:12.436Z,100612.84
2022-11-09T05:25:13.900Z,100605.88
2022-11-09T05:27:15.342Z,100605.09
2022-11-09T05:29:16.768Z,100614.75
2022-11-09T05:31:18.580Z,100620.13
2022-11-09T05:33:20.253Z,100618.34
2022-11-09T05:35:21.849Z,100622.06
2022-11-09T05:37:23.557Z,100626.50
2022-11-09T05:39:24.960Z,100620.41
2022-11-09T05:41:27.192Z,100622.31
2022-11-09T05:43:28.625Z,100629.41
2022-11-09T05:45:42.436Z,100641.97
2022-11-09T05:47:45.479Z,100641.22
2022-11-09T05:49:46.930Z,100640.38
2022-11-09T05:51:48.370Z,100635.94
2022-11-09T05:53:49.805Z,100646.59
2022-11-09T05:55:51.440Z,100648.50
2022-11-09T05:57:52.844Z,100647.66
2022-11-09T05:59:54.275Z,100658.25
2022-11-09T06:01:55.813Z,100662.78
2022-11-09T06:03:57.282Z,100658.41
2022-11-09T06:06:08.395Z,100658.41
2022-11-09T06:08:13.645Z,100654.03
2022-11-09T06:10:15.169Z,100658.47
2022-11-09T06:12:16.605Z,100651.38
2022-11-09T06:14:18.098Z,100654.84
2022-11-09T06:16:19.707Z,100652.16
2022-11-09T06:18:21.271Z,100648.63
2022-11-09T06:20:23.489Z,100654.75
2022-11-09T06:22:24.938Z,100649.50
2022-11-09T06:24:26.386Z,100653.94
2022-11-09T06:26:27.810Z,100655.59
2022-11-09T06:28:29.716Z,100650.25
2022-11-09T06:30:31.151Z,100648.50
2022-11-09T06:32:32.569Z,100648.50
2022-11-09T06:34:33.993Z,100651.16
2022-11-09T06:36:35.426Z,100657.38
2022-11-09T06:38:36.845Z,100662.69
2022-11-09T06:40:39.215Z,100660.03
2022-11-09T06:42:40.726Z,100666.19
2022-11-09T06:44:42.236Z,100664.41
2022-11-09T06:46:43.652Z,100670.63
2022-11-09T06:48:45.071Z,100672.38
2022-11-09T06:50:46.913Z,100676.75
2022-11-09T06:52:48.357Z,100670.56
2022-11-09T06:54:49.879Z,100683.81
2022-11-09T06:56:54.174Z,100679.50
2022-11-09T06:58:55.695Z,100676.91
2022-11-09T07:00:57.387Z,100685.84
2022-11-09T07:02:58.974Z,100688.53
2022-11-09T07:05:00.401Z,100695.63
2022-11-09T07:07:01.850Z,100692.06
2022-11-09T07:09:03.434Z,100695.44
2022-11-09T07:11:06.641Z,100693.63
2022-11-09T07:13:09.051Z,100698.00
2022-11-09T07:15:11.550Z,100704.09
2022-11-09T07:17:12.975Z,100709.34
2022-11-09T07:19:14.563Z,100711.06
2022-11-09T07:21:16.150Z,100717.16
2022-11-09T07:23:18.504Z,100712.78
2022-11-09T07:25:21.091Z,100715.44
2022-11-09T07:27:27.548Z,100723.34
2022-11-09T07:29:29.698Z,100718.88
2022-11-09T07:31:31.933Z,100721.53
2022-11-09T07:33:33.969Z,100728.50
2022-11-09T07:35:35.392Z,100729.28
2022-11-09T07:37:37.095Z,100722.88
2022-11-09T07:39:38.518Z,100731.56
2022-11-09T07:41:39.988Z,100734.06
2022-11-09T07:43:41.459Z,100739.19
2022-11-09T07:45:42.959Z,100742.56
2022-11-09T07:47:44.471Z,100745.16
2022-11-09T07:49:46.321Z,100749.47
2022-11-09T07:51:47.800Z,100746.75
2022-11-09T07:53:49.290Z,100749.31
2022-11-09T07:56:01.413Z,100750.84
2022-11-09T07:58:09.604Z,100754.16
2022-11-09T08:00:12.099Z,100753.03
2022-11-09T08:02:13.888Z,100754.66
2022-11-09T08:04:16.008Z,100756.09
2022-11-09T08:06:18.702Z,100758.50
2022-11-09T08:08:20.494Z,100754.06
2022-11-09T08:10:22.249Z,100758.56
2022-11-09T08:12:23.662Z,100756.78
2022-11-09T08:14:25.100Z,100755.91
2022-11-09T08:16:26.557Z,100753.25
2022-11-09T08:18:28.047Z,100757.63
2022-11-09T08:20:30.563Z,100760.16
2022-11-09T08:22:32.020Z,100757.44
2022-11-09T08:24:33.437Z,100758.22
2022-11-09T08:26:34.960Z,100759.91
2022-11-09T08:28:36.630Z,100753.69
2022-11-09T08:30:38.176Z,100758.00
2022-11-09T08:32:40.924Z,100749.97
2022-11-09T08:34:46.878Z,100749.84
2022-11-09T08:36:48.304Z,100747.03
2022-11-09T08:38:49.706Z,100755.72
2022-11-09T08:40:56.890Z,100752.94
2022-11-09T08:43:03.943Z,100754.59
2022-11-09T08:45:06.325Z,100751.88
2022-11-09T08:47:07.760Z,100752.59
2022-11-09T08:49:09.373Z,100755.13
2022-11-09T08:51:11.128Z,100753.25
2022-11-09T08:53:12.606Z,100757.56
2022-11-09T08:55:14.036Z,100754.06
2022-11-09T08:57:18.965Z,100755.72
2022-11-09T08:59:20.403Z,100760.88
2022-11-09T09:01:22.042Z,100760.81
2022-11-09T09:03:23.655Z,100763.28
2022-11-09T09:05:26.496Z,100760.44
2022-11-09T09:07:27.971Z,100759.50
2022-11-09T09:09:29.491Z,100767.53
2022-11-09T09:11:31.001Z,100770.13
2022-11-09T09:13:33.243Z,100772.78
2022-11-09T09:15:34.763Z,100773.56
2022-11-09T09:17:36.179Z,100777.78
2022-11-09T09:19:37.681Z,100775.78
2022-11-09T09:21:39.281Z,100768.59
2022-11-09T09:23:40.835Z,100779.00
2022-11-09T09:25:42.743Z,100772.63
2022-11-09T09:27:44.977Z,100775.13
2022-11-09T09:29:46.447Z,100780.31
2022-11-09T09:31:47.873Z,100781.09
2022-11-09T09:33:49.926Z,100790.88
2022-11-09T09:35:51.511Z,100795.31
2022-11-09T09:37:53.403Z,100797.97
2022-11-09T09:39:54.941Z,100795.25
2022-11-09T09:41:59.684Z,100796.03
2022-11-09T09:44:25.982Z,100814.63
2022-11-09T09:46:43.646Z,100808.47
2022-11-09T09:48:51.726Z,100813.66
2022-11-09T09:50:58.938Z,100815.09
2022-11-09T09:53:23.964Z,100809.50
2022-11-09T09:55:27.199Z,100812.75
2022-11-09T09:57:30.706Z,100809.06
2022-11-09T09:59:43.670Z,100816.97
2022-11-09T10:01:45.841Z,100808.13
2022-11-09T10:03:48.485Z,100813.47
2022-11-09T10:06:25.969Z,100806.41
2022-11-09T10:08:51.785Z,100816.13
2022-11-09T10:11:13.077Z,100821.78
2022-11-09T10:13:17.315Z,100810.00
2022-11-09T10:16:01.806Z,100806.28
2022-11-09T10:18:21.958Z,100811.47
2022-11-09T10:20:32.767Z,100809.50
2022-11-09T10:23:02.306Z,100813.91
2022-11-09T10:27:46.102Z,100809.44
2022-11-09T10:29:50.154Z,100810.00
2022-11-09T10:31:58.656Z,100816.34
2022-11-09T10:34:11.195Z,100813.75
2022-11-09T10:36:24.149Z,100817.34
2022-11-09T10:38:29.556Z,100810.72
2022-11-09T10:40:58.894Z,100809.41
2022-11-09T10:43:02.108Z,100799.97
2022-11-09T10:45:35.052Z,100800.34
2022-11-09T10:47:57.130Z,100797.81
2022-11-09T10:50:09.154Z,100803.66
2022-11-09T10:52:44.180Z,100804.91
2022-11-09T10:54:48.546Z,100800.69
2022-11-09T10:57:05.882Z,100808.78
2022-11-09T10:59:47.067Z,100798.13
2022-11-09T11:01:48.592Z,100804.72
2022-11-09T11:03:55.446Z,100808.56
2022-11-09T11:06:12.082Z,100802.50
2022-11-09T11:08:24.361Z,100798.63
2022-11-09T11:10:25.902Z,100800.00
2022-11-09T11:12:27.436Z,100796.00
2022-11-09T11:14:41.695Z,100787.78
2022-11-09T11:16:44.843Z,100792.47
2022-11-09T11:18:47.743Z,100796.91
2022-11-09T11:21:05.900Z,100784.25
2022-11-09T11:23:19.813Z,100794.69
2022-11-09T11:25:22.676Z,100787.88
2022-11-09T11:27:24.048Z,100799.22
2022-11-09T11:29:35.431Z,100798.63
2022-11-09T11:31:36.887Z,100791.31
2022-11-09T11:33:38.534Z,100796.88
2022-11-09T11:35:56.485Z,100788.16
2022-11-09T11:38:23.142Z,100791.63
2022-11-09T11:40:38.368Z,100797.63
2022-11-09T11:43:03.446Z,100798.13
2022-11-09T11:47:43.477Z,100801.31
2022-11-09T11:50:00.359Z,100805.66
2022-11-09T11:52:16.007Z,100796.66
2022-11-09T11:54:52.968Z,100790.69
2022-11-09T11:57:18.857Z,100788.19
2022-11-09T11:59:23.078Z,100793.16
2022-11-09T12:02:02.515Z,100787.13
2022-11-09T12:04:12.831Z,100790.97
2022-11-09T12:06:44.935Z,100793.72
2022-11-09T12:09:06.110Z,100793.88
2022-11-09T12:11:25.830Z,100800.34
2022-11-09T12:13:54.561Z,100795.19
2022-11-09T12:16:13.936Z,100788.75
2022-11-09T12:18:18.636Z,100791.56
2022-11-09T12:20:47.716Z,100788.91
2022-11-09T12:23:26.572Z,100793.22
2022-11-09T12:25:44.752Z,100786.91
2022-11-09T12:27:58.325Z,100785.63
2022-11-09T12:30:06.064Z,100783.75
2022-11-09T12:32:31.187Z,100794.47
2022-11-09T12:34:57.096Z,100787.44
2022-11-09T12:37:11.482Z,100781.88
2022-11-09T12:39:19.138Z,100787.97
2022-11-09T12:41:23.962Z,100778.44
2022-11-09T12:43:28.026Z,100788.28
2022-11-09T12:45:35.330Z,100779.28
2022-11-09T12:47:46.116Z,100782.81
2022-11-09T12:49:47.956Z,100782.88
2022-11-09T12:51:50.970Z,100782.19
2022-11-09T12:53:56.460Z,100791.03
2022-11-09T12:56:18.680Z,100791.97
2022-11-09T12:58:26.321Z,100789.63
2022-11-09T13:00:47.340Z,100792.44
2022-11-09T13:02:57.870Z,100792.44
2022-11-09T13:05:06.290Z,100795.09
2022-11-09T13:07:17.643Z,100798.09
2022-11-09T13:09:24.307Z,100799.78
2022-11-09T13:11:50.316Z,100795.41
2022-11-09T13:13:51.783Z,100804.28
2022-11-09T13:16:23.783Z,100805.09
2022-11-09T13:18:46.473Z,100802.44
2022-11-09T13:20:55.169Z,100805.09
2022-11-09T13:23:00.225Z,100806.16
2022-11-09T13:25:44.657Z,100802.84
2022-11-09T13:27:48.148Z,100810.97
2022-11-09T13:29:56.094Z,100807.38
2022-11-09T13:32:03.090Z,100808.38
2022-11-09T13:34:39.507Z,100815.59
2022-11-09T13:36:40.930Z,100814.66
2022-11-09T13:38:42.783Z,100821.91
2022-11-09T13:40:49.619Z,100814.16
2022-11-09T13:43:06.311Z,100809.00
2022-11-09T13:45:49.157Z,100808.28
2022-11-09T13:47:51.778Z,100824.38
2022-11-09T13:49:53.379Z,100814.69
2022-11-09T13:51:54.908Z,100816.34
2022-11-09T13:54:00.778Z,100815.88
2022-11-09T13:56:19.510Z,100808.25
2022-11-09T13:58:35.394Z,100812.22
2022-11-09T14:00:36.870Z,100809.19
2022-11-09T14:02:38.321Z,100817.03
2022-11-09T14:04:43.581Z,100811.63
2022-11-09T14:06:45.100Z,100817.97
2022-11-09T14:08:47.817Z,100822.72
2022-11-09T14:11:15.932Z,100828.38
2022-11-09T14:13:59.077Z,100820.75
2022-11-09T14:16:26.553Z,100823.50
2022-11-09T14:18:39.799Z,100828.03
2022-11-09T14:20:49.418Z,100819.41
2022-11-09T14:22:51.527Z,100827.84
2022-11-09T14:24:53.217Z,100836.03
2022-11-09T14:27:09.757Z,100827.34
2022-11-09T14:29:22.753Z,100819.69
2022-11-09T14:31:29.236Z,100819.91
2022-11-09T14:33:36.410Z,100821.94
2022-11-09T14:35:39.242Z,100832.72
2022-11-09T14:37:45.025Z,100827.53
2022-11-09T14:39:50.919Z,100824.94
2022-11-09T14:41:52.488Z,100833.00
2022-11-09T14:43:56.549Z,100832.28
2022-11-09T14:46:06.899Z,100830.47
2022-11-09T14:48:16.887Z,100839.31
2022-11-09T14:50:36.252Z,100847.38
2022-11-09T14:52:37.857Z,100847.50
2022-11-09T14:54:44.665Z,100858.00
2022-11-09T14:56:47.831Z,100860.72
2022-11-09T14:58:49.968Z,100857.13
2022-11-09T15:01:09.504Z,100857.22
2022-11-09T15:03:30.178Z,100856.41
2022-11-09T15:05:38.941Z,100863.66
2022-11-09T15:07:40.608Z,100868.19
2022-11-09T15:09:44.298Z,100867.41
2022-11-09T15:11:46.858Z,100867.47
2022-11-09T15:13:48.294Z,100868.34
2022-11-09T15:15:51.672Z,100868.59
2022-11-09T15:17:53.309Z,100858.94
2022-11-09T15:20:01.138Z,100868.59
2022-11-09T15:22:02.587Z,100873.03
2022-11-09T15:24:16.440Z,100866.13
2022-11-09T15:26:43.323Z,100882.75
2022-11-09T15:28:47.235Z,100884.16
2022-11-09T15:30:48.833Z,100884.63
2022-11-09T15:32:50.302Z,100886.63
2022-11-09T15:34:51.751Z,100883.03
2022-11-09T15:36:54.973Z,100883.22
2022-11-09T15:39:12.905Z,100880.84
2022-11-09T15:41:18.691Z,100884.63
2022-11-09T15:43:20.204Z,100879.44
2022-11-09T15:45:21.793Z,100884.81
2022-11-09T15:47:51.204Z,100878.78
2022-11-09T15:49:52.716Z,100885.69
2022-11-09T15:51:54.746Z,100881.09
2022-11-09T15:53:56.272Z,100875.97
2022-11-09T15:56:00.344Z,100879.03
2022-11-09T15:58:01.901Z,100883.47
2022-11-09T16:00:09.502Z,100884.34
2022-11-09T16:02:14.990Z,100892.34
2022-11-09T16:04:16.492Z,100899.53
2022-11-09T16:06:23.448Z,100902.97
2022-11-09T16:08:24.990Z,100900.31
2022-11-09T16:10:30.592Z,100902.13
2022-11-09T16:12:32.007Z,100903.03
2022-11-09T16:14:34.266Z,100902.25
2022-11-09T16:16:35.706Z,100908.41
2022-11-09T16:18:37.204Z,100899.72
2022-11-09T16:20:40.270Z,100903.22
2022-11-09T16:22:42.112Z,100913.06
2022-11-09T16:24:44.575Z,100909.69
2022-11-09T16:26:46.125Z,100915.13
2022-11-09T16:28:47.827Z,100909.88
2022-11-09T16:30:49.334Z,100916.91
2022-11-09T16:32:50.843Z,100917.09
2022-11-09T16:35:15.352Z,100918.13
2022-11-09T16:37:14.145Z,100921.72
2022-11-09T16:39:18.210Z,100923.56
2022-11-09T16:41:20.568Z,100928.81
2022-11-09T16:43:22.217Z,100936.78
2022-11-09T16:45:25.905Z,100929.75
2022-11-09T16:47:29.405Z,100938.63
2022-11-09T16:49:31.891Z,100929.78
2022-11-09T16:51:33.335Z,100936.91
2022-11-09T16:53:34.797Z,100944.00
2022-11-09T16:55:36.408Z,100943.25
2022-11-09T16:57:37.921Z,100955.75
2022-11-09T16:59:39.751Z,100945.16
2022-11-09T17:01:41.264Z,100951.44
2022-11-09T17:03:42.845Z,100954.97
2022-11-09T17:05:44.378Z,100959.47
2022-11-09T17:07:48.959Z,100958.66
2022-11-09T17:09:50.422Z,100964.94
2022-11-09T17:11:51.877Z,100964.81
2022-11-09T17:13:58.085Z,100968.34
2022-11-09T17:16:04.570Z,100971.91
2022-11-09T17:18:08.149Z,100969.38
2022-11-09T17:20:11.384Z,100970.19
2022-11-09T17:22:14.558Z,100971.91
2022-11-09T17:24:16.192Z,100979.81
2022-11-09T17:26:18.641Z,100979.88
2022-11-09T17:28:20.301Z,100982.53
2022-11-09T17:30:23.257Z,100987.84
2022-11-09T17:32:25.937Z,100987.72
2022-11-09T17:34:27.434Z,100988.53
2022-11-09T17:36:56.908Z,100987.72
2022-11-09T17:38:50.339Z,100990.44
2022-11-09T17:40:51.858Z,100993.06
2022-11-09T17:42:53.304Z,100994.75
2022-11-09T17:44:54.740Z,101001.78
2022-11-09T17:46:56.167Z,100996.47
2022-11-09T17:48:57.610Z,101002.59
2022-11-09T17:50:59.479Z,101005.19
2022-11-09T17:53:00.899Z,101007.78
2022-11-09T17:55:02.447Z,101005.13
2022-11-09T17:57:04.075Z,101007.78
2022-11-09T17:59:05.615Z,101013.94
2022-11-09T18:01:09.570Z,101016.59
2022-11-09T18:03:11.098Z,101023.69
2022-11-09T18:05:15.657Z,101020.06
2022-11-09T18:07:17.203Z,101023.69
2022-11-09T18:09:40.254Z,101029.94
2022-11-09T18:11:41.869Z,101032.56
2022-11-09T18:13:44.453Z,101028.06
2022-11-09T18:15:45.862Z,101035.22
2022-11-09T18:17:47.441Z,101034.41
2022-11-09T18:19:48.878Z,101037.94
2022-11-09T18:21:50.688Z,101031.66
2022-11-09T18:23:52.680Z,101038.81
2022-11-09T18:25:58.209Z,101045.91
2022-11-09T18:27:59.652Z,101050.28
2022-11-09T18:30:02.466Z,101052.13
2022-11-09T18:32:04.077Z,101054.78
2022-11-09T18:34:05.559Z,101057.44
2022-11-09T18:36:11.350Z,101057.44
2022-11-09T18:38:13.338Z,101063.59
2022-11-09T18:40:16.361Z,101069.03
2022-11-09T18:42:17.781Z,101084.06
2022-11-09T18:44:19.217Z,101103.63
2022-11-09T18:46:22.216Z,101104.78
2022-11-09T18:48:24.150Z,101115.19
2022-11-09T18:50:25.678Z,101106.81
2022-11-09T18:52:27.140Z,101111.63
2022-11-09T18:54:29.260Z,101124.44
2022-11-09T18:56:30.808Z,101120.50
2022-11-09T18:58:33.205Z,101120.00
2022-11-09T19:00:34.743Z,101125.59
2022-11-09T19:02:36.329Z,101129.34
2022-11-09T19:04:38.049Z,101129.59
2022-11-09T19:06:39.553Z,101136.13
2022-11-09T19:08:59.394Z,101144.38
2022-11-09T19:11:05.214Z,101146.41
2022-11-09T19:13:06.679Z,101153.72
2022-11-09T19:15:08.420Z,101152.97
2022-11-09T19:17:13.393Z,101159.19
2022-11-09T19:19:15.720Z,101160.22
2022-11-09T19:21:38.773Z,101157.63
2022-11-09T19:23:40.318Z,101153.38
2022-11-09T19:25:41.793Z,101159.59
2022-11-09T19:27:43.239Z,101168.47
2022-11-09T19:29:44.767Z,101159.63
2022-11-09T19:31:47.126Z,101166.78
2022-11-09T19:33:48.737Z,101165.88
2022-11-09T19:36:23.428Z,101168.47
2022-11-09T19:38:14.466Z,101169.44
2022-11-09T19:40:16.320Z,101171.22
2022-11-09T19:42:17.810Z,101177.31
2022-11-09T19:44:19.312Z,101179.06
2022-11-09T19:46:20.837Z,101177.31
2022-11-09T19:48:22.627Z,101188.00
2022-11-09T19:50:24.200Z,101184.53
2022-11-09T19:52:25.639Z,101195.09
2022-11-09T19:54:27.048Z,101188.16
2022-11-09T19:56:30.969Z,101193.53
2022-11-09T19:58:32.479Z,101198.91
2022-11-09T20:00:35.754Z,101198.84
2022-11-09T20:02:37.194Z,101208.56
2022-11-09T20:04:38.705Z,101207.75
2022-11-09T20:06:41.102Z,101214.00
2022-11-09T20:08:42.652Z,101214.88
2022-11-09T20:10:44.098Z,101215.84
2022-11-09T20:12:51.479Z,101214.09
2022-11-09T20:14:52.914Z,101220.34
2022-11-09T20:16:54.875Z,101221.25
2022-11-09T20:18:57.083Z,101222.19
2022-11-09T20:20:58.527Z,101223.94
2022-11-09T20:23:00.694Z,101225.75
2022-11-09T20:25:02.641Z,101227.47
2022-11-09T20:27:04.216Z,101233.66
2022-11-09T20:29:06.171Z,101239.00
2022-11-09T20:31:11.959Z,101243.41
2022-11-09T20:33:13.602Z,101246.13
2022-11-09T20:35:15.663Z,101250.59
2022-11-09T20:37:17.881Z,101249.72
2022-11-09T20:39:19.356Z,101254.16
2022-11-09T20:41:25.183Z,101262.06
2022-11-09T20:43:28.126Z,101258.59
2022-11-09T20:45:29.534Z,101263.84
2022-11-09T20:47:57.641Z,101270.03
2022-11-09T20:49:52.426Z,101271.81
2022-11-09T20:51:54.076Z,101278.88
2022-11-09T20:53:55.555Z,101274.50
2022-11-09T20:55:57.046Z,101272.72
2022-11-09T20:57:58.488Z,101286.88
2022-11-09T20:59:59.993Z,101286.00
2022-11-09T21:02:01.486Z,101280.72
2022-11-09T21:04:03.464Z,101287.75
2022-11-09T21:06:06.515Z,101293.88
2022-11-09T21:08:07.976Z,101293.94
2022-11-09T21:10:09.635Z,101307.06
2022-11-09T21:12:24.749Z,101303.56
2022-11-09T21:14:26.606Z,101303.56
2022-11-09T21:16:29.000Z,101308.78
2022-11-09T21:18:30.450Z,101313.28
2022-11-09T21:20:31.934Z,101317.66
2022-11-09T21:23:05.039Z,101316.78
2022-11-09T21:25:25.446Z,101321.16
2022-11-09T21:27:48.020Z,101321.16
2022-11-09T21:29:52.934Z,101318.47
2022-11-09T21:31:54.868Z,101327.28
2022-11-09T21:33:56.426Z,101324.63
2022-11-09T21:35:58.104Z,101334.34
2022-11-09T21:37:59.617Z,101333.44
2022-11-09T21:40:01.085Z,101334.34
2022-11-09T21:42:03.857Z,101344.88
2022-11-09T21:44:07.949Z,101344.88
2022-11-09T21:46:09.346Z,101355.44
2022-11-09T21:48:10.790Z,101349.28
2022-11-09T21:50:12.985Z,101348.50
2022-11-09T21:52:14.544Z,101360.00
2022-11-09T21:54:16.020Z,101363.56
2022-11-09T21:56:17.452Z,101353.84
2022-11-09T21:58:18.868Z,101365.28
2022-11-09T22:00:20.698Z,101370.53
2022-11-09T22:02:22.153Z,101362.63
2022-11-09T22:04:23.581Z,101367.91
2022-11-09T22:06:25.699Z,101372.28
2022-11-09T22:08:27.466Z,101372.28
2022-11-09T22:10:28.948Z,101376.69
2022-11-09T22:12:48.884Z,101376.69
2022-11-09T22:15:08.816Z,101374.06
2022-11-09T22:17:10.248Z,101377.56
2022-11-09T22:19:30.044Z,101382.81
2022-11-09T22:21:31.934Z,101377.53
2022-11-09T22:23:33.353Z,101381.09
2022-11-09T22:25:34.939Z,101382.00
2022-11-09T22:27:36.379Z,101381.13
2022-11-09T22:29:37.807Z,101382.88
2022-11-09T22:31:39.330Z,101394.34
2022-11-09T22:33:40.736Z,101389.06
2022-11-09T22:35:42.182Z,101389.06
2022-11-09T22:37:43.596Z,101396.13
2022-11-09T22:39:47.487Z,101392.63
2022-11-09T22:41:49.407Z,101397.94
2022-11-09T22:43:52.464Z,101397.94
2022-11-09T22:45:53.948Z,101399.72
2022-11-09T22:47:55.395Z,101405.03
2022-11-09T22:49:56.840Z,101407.75
2022-11-09T22:51:58.247Z,101418.38
2022-11-09T22:53:59.699Z,101423.69
2022-11-09T22:56:02.832Z,101429.03
2022-11-09T22:58:04.375Z,101428.19
2022-11-09T23:00:06.489Z,101429.09
2022-11-09T23:02:07.921Z,101436.16
2022-11-09T23:04:10.478Z,101442.31
2022-11-09T23:06:17.576Z,101445.84
2022-11-09T23:08:18.982Z,101447.66
2022-11-09T23:10:20.421Z,101449.34
2022-11-09T23:12:21.823Z,101443.19
2022-11-09T23:14:43.196Z,101444.97
2022-11-09T23:16:44.619Z,101450.25
2022-11-09T23:18:55.260Z,101452.94
2022-11-09T23:20:59.404Z,101459.19
2022-11-09T23:23:00.824Z,101459.25
2022-11-09T23:25:20.613Z,101464.50
2022-11-09T23:27:22.033Z,101459.34
2022-11-09T23:29:23.439Z,101469.88
2022-11-09T23:31:26.915Z,101476.94
2022-11-09T23:33:29.206Z,101479.63
2022-11-09T23:35:31.225Z,101480.50
2022-11-09T23:37:32.663Z,101478.75
2022-11-09T23:39:34.080Z,101482.28
2022-11-09T23:41:35.517Z,101486.72
2022-11-09T23:43:37.756Z,101486.75
2022-11-09T23:45:40.457Z,101492.09
2022-11-09T23:47:41.864Z,101494.81
2022-11-09T23:49:43.325Z,101492.16
2022-11-09T23:51:44.746Z,101497.44
2022-11-09T23:53:46.150Z,101505.41
2022-11-09T23:55:47.626Z,101509.88